Time;durP1;ratioP1;P1;durP2;ratioP2;P2;SDS_P1;SDS_P2;PMS_P1;PMS_P2;Temp;Humidity;BMP_temperature;BMP_pressure;BME280_temperature;BME280_humidity;BME280_pressure;Samples;Min_cycle;Max_cycle;Signal;HPM_P1;HPM_P2
2023/05/17 00:00:02;;;;;;;1999.90;361.80;;;;;;;9.00;85.88;98480.13;4161428;28;20763;-83
2023/05/17 00:02:07;;;;;;;1999.90;315.00;;;;;;;8.98;85.72;98475.00;4169281;28;20714;-83
2023/05/17 00:04:11;;;;;;;1999.90;373.30;;;;;;;8.99;85.82;98484.50;4161327;28;20210;-84
2023/05/17 00:06:14;;;;;;;1999.90;292.05;;;;;;;9.00;85.36;98480.13;4144367;28;22474;-83
2023/05/17 00:08:18;;;;;;;1999.90;277.13;;;;;;;8.94;86.72;98481.31;4145558;28;20238;-83
2023/05/17 00:10:21;;;;;;;1999.90;279.58;;;;;;;8.88;86.23;98485.19;4153418;28;20626;-83
2023/05/17 00:12:24;;;;;;;1999.90;303.90;;;;;;;8.79;86.41;98486.50;4153919;28;20237;-83
2023/05/17 00:14:27;;;;;;;1999.90;341.05;;;;;;;8.74;85.83;98488.53;4167781;28;20676;-83
2023/05/17 00:16:30;;;;;;;1999.90;305.63;;;;;;;8.71;85.76;98488.69;4181291;28;20213;-83
2023/05/17 00:18:33;;;;;;;1981.32;293.60;;;;;;;8.70;85.67;98486.19;4173219;28;20205;-83
2023/05/17 00:20:38;;;;;;;1999.90;335.50;;;;;;;8.68;86.25;98485.44;4150889;28;20580;-83
2023/05/17 00:22:42;;;;;;;1999.90;305.45;;;;;;;8.66;86.36;98489.88;4170968;28;20233;-83
2023/05/17 00:24:45;;;;;;;1999.90;392.00;;;;;;;8.65;86.83;98483.84;4163702;28;20767;-83
2023/05/17 00:26:48;;;;;;;1999.90;371.67;;;;;;;8.69;86.43;98494.91;4167979;28;21061;-83
2023/05/17 00:28:51;;;;;;;1999.90;402.87;;;;;;;8.71;86.77;98495.66;4162890;28;20644;-83
2023/05/17 00:30:54;;;;;;;1999.90;405.90;;;;;;;8.69;85.64;98493.16;4164554;28;20631;-83
2023/05/17 00:32:57;;;;;;;1999.90;333.10;;;;;;;8.68;86.23;98494.06;4168776;28;20667;-83
2023/05/17 00:35:01;;;;;;;1999.90;369.42;;;;;;;8.66;86.58;98493.31;4162840;28;20680;-83
2023/05/17 00:37:05;;;;;;;1999.90;449.85;;;;;;;8.67;87.72;98499.34;4152685;28;20751;-83
2023/05/17 00:39:08;;;;;;;1999.90;421.13;;;;;;;8.66;86.51;98497.66;4143823;28;20214;-83
2023/05/17 00:41:12;;;;;;;1999.90;353.92;;;;;;;8.64;87.10;98502.13;4146486;28;21130;-83
2023/05/17 00:43:15;;;;;;;1999.90;358.40;;;;;;;8.58;86.08;98498.06;4165130;28;20202;-83
2023/05/17 00:45:19;;;;;;;1999.90;415.15;;;;;;;8.52;85.92;98500.16;4154085;28;21177;-83
2023/05/17 00:47:22;;;;;;;1999.90;428.75;;;;;;;8.49;86.17;98497.75;4166625;28;20666;-83
2023/05/17 00:49:26;;;;;;;1999.90;485.77;;;;;;;8.50;86.09;98500.25;4145990;28;20293;-84
2023/05/17 00:51:30;;;;;;;1999.90;437.93;;;;;;;8.45;87.01;98491.88;4169184;28;20690;-83
2023/05/17 00:53:35;;;;;;;1999.90;476.80;;;;;;;8.46;86.19;98495.31;4155133;28;20665;-83
2023/05/17 00:55:39;;;;;;;1999.90;419.98;;;;;;;8.45;87.43;98504.03;4155114;28;20625;-83
2023/05/17 00:57:42;;;;;;;1999.90;473.90;;;;;;;8.43;86.34;98505.84;4151714;28;20256;-82
2023/05/17 00:59:45;;;;;;;1999.90;419.33;;;;;;;8.44;86.06;98506.72;4156744;28;20868;-83
2023/05/17 01:01:48;;;;;;;1999.90;406.75;;;;;;;8.38;86.79;98505.28;4148814;28;20756;-85
2023/05/17 01:03:52;;;;;;;1999.90;471.70;;;;;;;8.33;87.46;98512.47;4159558;28;20606;-85
2023/05/17 01:05:55;;;;;;;1999.90;494.45;;;;;;;8.26;87.29;98503.31;4169761;28;20325;-86
2023/05/17 01:07:58;;;;;;;1999.90;392.13;;;;;;;8.24;86.93;98514.69;4158210;28;20257;-85
2023/05/17 01:10:03;;;;;;;1999.90;485.58;;;;;;;8.19;87.04;98508.91;4150032;28;20221;-86
2023/05/17 01:12:13;;;;;;;1999.90;531.13;;;;;;;8.19;87.21;98514.13;4167952;28;20198;-86
2023/05/17 01:14:28;;;;;;;1999.90;580.13;;;;;;;8.11;86.81;98516.25;4156200;28;20293;-85
2023/05/17 01:16:34;;;;;;;1999.90;643.05;;;;;;;8.08;87.14;98514.63;4166367;28;20603;-85
2023/05/17 01:18:41;;;;;;;1999.90;583.50;;;;;;;8.11;88.17;98517.09;4154588;28;20321;-85
2023/05/17 01:20:45;;;;;;;1999.90;674.85;;;;;;;8.13;88.17;98520.47;4170794;28;20201;-85
2023/05/17 01:22:53;;;;;;;1999.90;534.38;;;;;;;8.17;87.78;98519.38;4163121;28;20226;-86
2023/05/17 01:25:16;;;;;;;1999.90;649.28;;;;;;;8.21;88.51;98530.44;4169085;28;22275;-85
2023/05/17 01:27:22;;;;;;;1999.90;619.60;;;;;;;8.25;88.54;98525.00;4152675;28;20970;-86
2023/05/17 01:29:26;;;;;;;1999.90;621.40;;;;;;;8.26;87.49;98524.09;4167172;28;20239;-85
2023/05/17 01:31:30;;;;;;;1999.90;544.70;;;;;;;8.24;88.89;98525.94;4169072;28;20206;-85
2023/05/17 01:33:34;;;;;;;1999.90;512.47;;;;;;;8.24;89.09;98531.16;4155312;28;20241;-86
2023/05/17 01:35:37;;;;;;;1999.90;493.67;;;;;;;8.23;88.24;98532.06;4169702;28;20470;-86
2023/05/17 01:37:40;;;;;;;1999.90;514.80;;;;;;;8.24;88.72;98536.34;4151910;28;20199;-86
2023/05/17 01:39:43;;;;;;;1999.90;462.50;;;;;;;8.21;87.51;98538.25;4168003;28;20230;-85
2023/05/17 01:41:49;;;;;;;1999.90;490.90;;;;;;;8.22;88.19;98532.97;4154834;28;20265;-85
2023/05/17 01:44:00;;;;;;;1999.90;514.97;;;;;;;8.22;87.77;98529.53;4170612;28;20632;-86
2023/05/17 01:46:09;;;;;;;1999.90;539.65;;;;;;;8.24;86.88;98535.47;4168550;28;20304;-86
2023/05/17 01:48:17;;;;;;;1999.90;551.70;;;;;;;8.25;88.30;98535.41;4153583;28;20207;-86
2023/05/17 01:50:24;;;;;;;1999.90;574.17;;;;;;;8.27;87.79;98537.94;4159639;28;20720;-85
2023/05/17 01:52:30;;;;;;;1999.90;565.00;;;;;;;8.27;87.00;98538.78;4162977;28;21014;-85
2023/05/17 01:54:41;;;;;;;1999.90;641.17;;;;;;;8.26;88.27;98537.09;4150830;28;20707;-86
2023/05/17 01:56:48;;;;;;;1999.90;580.92;;;;;;;8.31;87.67;98545.47;4166071;28;20596;-86
2023/05/17 01:58:53;;;;;;;1999.90;579.78;;;;;;;8.29;88.14;98539.53;4171953;28;20273;-85
2023/05/17 02:00:58;;;;;;;1999.90;506.10;;;;;;;8.26;87.61;98537.09;4150886;28;20600;-85
2023/05/17 02:03:02;;;;;;;1999.90;477.95;;;;;;;8.24;88.29;98538.94;4166473;28;20222;-85
2023/05/17 02:05:06;;;;;;;1999.90;457.85;;;;;;;8.24;88.85;98543.28;4165787;28;20292;-85
2023/05/17 02:07:09;;;;;;;1999.90;500.63;;;;;;;8.25;89.33;98538.00;4154832;28;20266;-85
2023/05/17 02:09:13;;;;;;;1999.90;473.02;;;;;;;8.29;88.11;98551.69;4155798;28;20207;-85
2023/05/17 02:11:16;;;;;;;1999.90;463.70;;;;;;;8.32;87.33;98546.34;4153843;28;20289;-86
2023/05/17 02:13:19;;;;;;;1999.90;514.70;;;;;;;8.34;87.13;98547.91;4153234;28;20203;-86
2023/05/17 02:15:24;;;;;;;1999.90;450.90;;;;;;;8.31;87.62;98545.47;4168428;28;20663;-85
2023/05/17 02:17:27;;;;;;;1999.90;555.90;;;;;;;8.32;87.37;98556.72;4171192;28;20242;-85
2023/05/17 02:19:30;;;;;;;1999.90;432.80;;;;;;;8.32;88.39;98557.56;4170143;28;20210;-85
2023/05/17 02:21:35;;;;;;;1999.90;471.77;;;;;;;8.34;87.63;98557.47;4165881;28;20269;-85
2023/05/17 02:23:38;;;;;;;1999.90;525.90;;;;;;;8.33;87.91;98563.59;4169532;28;20218;-86
2023/05/17 02:25:41;;;;;;;1999.90;473.27;;;;;;;8.33;87.96;98559.25;4154373;28;20222;-85
2023/05/17 02:27:44;;;;;;;1999.90;395.02;;;;;;;8.31;87.82;98568.88;4166727;28;20206;-85
2023/05/17 02:29:47;;;;;;;1999.90;460.90;;;;;;;8.27;88.82;98559.56;4155848;28;20761;-86
2023/05/17 02:31:51;;;;;;;1999.90;458.33;;;;;;;8.25;87.36;98569.19;4170409;28;20313;-85
2023/05/17 02:33:55;;;;;;;1999.90;529.55;;;;;;;8.19;88.44;98559.09;4163360;28;20628;-85
2023/05/17 02:35:58;;;;;;;1999.90;469.63;;;;;;;8.15;87.48;98570.59;4156435;28;20241;-86
2023/05/17 02:38:01;;;;;;;1999.90;504.40;;;;;;;8.13;88.71;98562.03;4167516;28;20809;-86
2023/05/17 02:40:08;;;;;;;1999.90;545.85;;;;;;;8.10;87.78;98567.38;4167234;28;20201;-86
2023/05/17 02:42:11;;;;;;;1999.90;562.60;;;;;;;8.08;88.19;98569.19;4171834;28;20205;-86
2023/05/17 02:44:14;;;;;;;1999.90;526.15;;;;;;;8.06;89.03;98563.22;4167168;28;20222;-85
2023/05/17 02:46:17;;;;;;;1999.90;541.80;;;;;;;8.03;87.81;98563.38;4164941;28;20213;-86
2023/05/17 02:48:22;;;;;;;1999.90;534.00;;;;;;;7.99;87.43;98561.03;4154584;28;20255;-86
2023/05/17 02:50:25;;;;;;;1999.90;535.90;;;;;;;7.98;88.94;98565.38;4168532;28;20201;-85
2023/05/17 02:52:29;;;;;;;1999.90;572.50;;;;;;;7.99;87.90;98563.63;4170349;28;20743;-85
2023/05/17 02:54:32;;;;;;;1999.90;576.70;;;;;;;7.97;88.29;98555.06;4152454;28;20289;-86
2023/05/17 02:56:36;;;;;;;1999.90;528.97;;;;;;;7.97;87.63;98561.09;4169172;28;20210;-86
2023/05/17 02:58:39;;;;;;;1999.90;625.33;;;;;;;7.96;87.42;98565.53;4164472;28;20206;-85
2023/05/17 03:00:44;;;;;;;1999.90;570.15;;;;;;;7.96;88.33;98560.34;4173415;28;20234;-85
2023/05/17 03:02:48;;;;;;;1999.90;653.95;;;;;;;7.95;87.30;98561.25;4154069;28;20257;-85
2023/05/17 03:04:53;;;;;;;1999.90;718.35;;;;;;;7.94;88.12;98556.97;4164443;28;20243;-85
2023/05/17 03:06:57;;;;;;;1999.90;614.67;;;;;;;7.94;88.60;98567.34;4149826;28;20215;-85
2023/05/17 03:09:01;;;;;;;1999.90;634.63;;;;;;;7.95;87.84;98571.63;4167254;28;20579;-85
2023/05/17 03:11:04;;;;;;;1999.90;627.22;;;;;;;7.96;88.23;98573.31;4164925;28;20262;-85
2023/05/17 03:13:08;;;;;;;1999.90;702.10;;;;;;;7.96;88.04;98575.00;4150353;28;20296;-85
2023/05/17 03:15:13;;;;;;;1999.90;661.92;;;;;;;7.97;87.49;98571.47;4166800;28;20675;-85
2023/05/17 03:17:17;;;;;;;1999.90;584.38;;;;;;;7.99;88.28;98574.00;4154129;28;20206;-86
2023/05/17 03:19:20;;;;;;;1999.90;564.45;;;;;;;7.98;88.47;98575.78;4179502;28;20236;-85
2023/05/17 03:21:25;;;;;;;1999.90;538.38;;;;;;;7.97;87.25;98581.88;4170618;28;20209;-85
2023/05/17 03:23:28;;;;;;;1999.90;600.10;;;;;;;7.98;87.18;98578.38;4149924;28;20223;-85
2023/05/17 03:25:34;;;;;;;1999.90;571.45;;;;;;;7.97;87.82;98581.88;4163244;28;20686;-86
2023/05/17 03:27:39;;;;;;;1999.90;638.35;;;;;;;7.99;88.48;98585.22;4153847;28;20258;-85
2023/05/17 03:29:42;;;;;;;1999.90;658.42;;;;;;;7.97;87.76;98581.88;4151150;28;20315;-86
2023/05/17 03:31:46;;;;;;;1999.90;536.58;;;;;;;7.97;87.48;98589.66;4152189;28;20230;-86
2023/05/17 03:33:50;;;;;;;1999.90;600.15;;;;;;;7.97;87.39;98591.44;4153762;28;20210;-85
2023/05/17 03:35:54;;;;;;;1999.90;586.50;;;;;;;7.97;87.72;98592.25;4170958;28;20209;-86
2023/05/17 03:37:59;;;;;;;1999.90;616.13;;;;;;;7.94;88.45;98594.19;4164060;28;20271;-85
2023/05/17 03:40:02;;;;;;;1999.90;594.63;;;;;;;7.93;86.90;98596.84;4157394;28;20214;-85
2023/05/17 03:42:06;;;;;;;1999.90;681.03;;;;;;;7.93;86.82;98602.03;4168901;28;20300;-85
2023/05/17 03:44:10;;;;;;;1999.90;668.38;;;;;;;7.88;86.94;98604.00;4170279;28;20691;-86
2023/05/17 03:46:13;;;;;;;1999.90;722.00;;;;;;;7.87;86.79;98600.56;4174563;28;20855;-86
2023/05/17 03:48:16;;;;;;;1999.90;546.90;;;;;;;7.85;87.18;98592.03;4183331;28;20208;-86
2023/05/17 03:50:20;;;;;;;1999.90;664.33;;;;;;;7.83;87.74;98601.63;4156898;28;20210;-85
2023/05/17 03:52:23;;;;;;;1999.90;608.78;;;;;;;7.83;87.09;98606.00;4156740;28;20237;-85
2023/05/17 03:54:27;;;;;;;1999.90;695.67;;;;;;;7.82;87.57;98606.91;4179361;28;20225;-86
2023/05/17 03:56:31;;;;;;;1999.90;670.88;;;;;;;7.84;88.58;98607.69;4168143;28;20216;-86
2023/05/17 03:58:34;;;;;;;1999.90;678.80;;;;;;;7.86;87.33;98609.28;4172170;28;20217;-86
2023/05/17 04:00:37;;;;;;;1999.90;722.03;;;;;;;7.89;87.65;98613.50;4169250;28;20217;-86
2023/05/17 04:02:47;;;;;;;1999.90;708.88;;;;;;;7.91;87.71;98612.50;4150155;28;20210;-85
2023/05/17 04:04:51;;;;;;;1999.90;705.13;;;;;;;7.95;88.71;98614.00;4144709;28;20288;-86
2023/05/17 04:06:57;;;;;;;1999.90;582.17;;;;;;;7.97;88.96;98625.19;4149304;28;20608;-85
2023/05/17 04:09:02;;;;;;;1999.90;659.08;;;;;;;7.99;87.43;98631.97;4163846;28;20207;-85
2023/05/17 04:11:11;;;;;;;1999.90;721.45;;;;;;;7.97;87.60;98626.03;4153552;28;20562;-85
2023/05/17 04:13:15;;;;;;;1999.90;731.25;;;;;;;7.99;88.71;98626.78;4168235;28;20586;-85
2023/05/17 04:15:18;;;;;;;1999.90;624.92;;;;;;;7.98;87.51;98627.72;4167099;28;20202;-86
2023/05/17 04:17:23;;;;;;;1999.90;667.65;;;;;;;7.98;88.99;98632.91;4156069;28;20195;-86
2023/05/17 04:19:27;;;;;;;1999.90;645.23;;;;;;;7.99;88.13;98624.19;4179475;28;20198;-86
2023/05/17 04:21:30;;;;;;;1999.90;619.03;;;;;;;8.02;87.90;98639.59;4166154;28;20889;-85
2023/05/17 04:23:34;;;;;;;1999.90;544.45;;;;;;;8.03;88.77;98633.50;4168559;28;20670;-85
2023/05/17 04:25:37;;;;;;;1999.90;602.53;;;;;;;8.05;88.76;98638.63;4151467;28;20297;-85
2023/05/17 04:27:42;;;;;;;1999.90;616.45;;;;;;;8.04;88.17;98639.53;4151794;28;20649;-85
2023/05/17 04:29:45;;;;;;;1999.90;637.35;;;;;;;8.08;89.01;98641.06;4153610;28;20228;-85
2023/05/17 04:31:48;;;;;;;1999.90;607.60;;;;;;;8.12;87.97;98653.03;4146830;28;20261;-86
2023/05/17 04:33:52;;;;;;;1999.90;622.22;;;;;;;8.16;87.99;98664.94;4149399;28;20233;-85
2023/05/17 04:35:56;;;;;;;1999.90;579.40;;;;;;;8.17;88.05;98657.06;4161607;28;21117;-86
2023/05/17 04:38:01;;;;;;;1999.90;526.55;;;;;;;8.19;88.88;98657.00;4145085;28;20215;-89
2023/05/17 04:40:06;;;;;;;1999.90;553.50;;;;;;;8.22;87.93;98662.03;4155115;28;20211;-89
2023/05/17 04:42:09;;;;;;;1999.90;557.97;;;;;;;8.26;89.37;98659.22;4167671;28;20212;-89
2023/05/17 04:44:18;;;;;;;1999.90;562.95;;;;;;;8.31;87.88;98665.00;4155468;28;20225;-88
2023/05/17 04:46:21;;;;;;;1999.90;509.70;;;;;;;8.39;88.49;98662.03;4144773;28;20214;-88
2023/05/17 04:48:25;;;;;;;1999.90;461.08;;;;;;;8.45;88.31;98667.78;4139832;28;20290;-89
2023/05/17 04:50:29;;;;;;;1999.90;455.47;;;;;;;8.49;88.46;98670.13;4160570;28;20286;-89
2023/05/17 04:52:32;;;;;;;1999.90;558.47;;;;;;;8.54;87.84;98669.91;4147696;28;20656;-88
2023/05/17 04:54:36;;;;;;;1999.90;408.42;;;;;;;8.60;87.56;98677.34;4168185;28;20228;-86
2023/05/17 04:56:39;;;;;;;1999.90;445.50;;;;;;;8.64;88.66;98686.69;4155302;28;20210;-90
2023/05/17 04:58:48;;;;;;;1999.90;448.95;;;;;;;8.74;88.43;98690.50;4157002;28;20223;-86
2023/05/17 05:00:57;;;;;;;1999.90;389.75;;;;;;;8.81;88.10;98697.91;4167232;28;20291;-94
2023/05/17 05:03:00;;;;;;;1999.90;363.13;;;;;;;8.91;87.67;98700.88;4156297;28;20199;-91
2023/05/17 05:05:05;;;;;;;1999.90;325.10;;;;;;;8.96;87.66;98699.72;4167953;28;20698;-90
2023/05/17 05:07:09;;;;;;;1999.90;325.15;;;;;;;9.06;87.14;98699.13;4168968;28;20195;-89
2023/05/17 05:09:12;;;;;;;1923.65;245.00;;;;;;;9.15;87.75;98703.03;4160369;28;20711;-90
2023/05/17 05:11:15;;;;;;;1720.07;237.43;;;;;;;9.24;86.83;98708.59;4162733;28;20210;-90
2023/05/17 05:13:18;;;;;;;1838.18;237.40;;;;;;;9.34;87.65;98706.34;4166456;28;20201;-90
2023/05/17 05:15:21;;;;;;;1501.05;198.80;;;;;;;9.43;88.25;98717.09;4166889;28;20832;-90
2023/05/17 05:17:33;;;;;;;1783.22;215.40;;;;;;;9.54;88.64;98717.34;4148138;28;20229;-87
2023/05/17 05:19:36;;;;;;;1543.50;175.10;;;;;;;9.62;87.29;98710.81;4158610;28;20203;-88
2023/05/17 05:21:40;;;;;;;1585.13;187.37;;;;;;;9.70;86.81;98713.84;4157268;28;20784;-88
2023/05/17 05:23:43;;;;;;;1135.87;132.87;;;;;;;9.78;86.82;98716.03;4172460;28;20621;-87
2023/05/17 05:25:48;;;;;;;1305.83;162.10;;;;;;;9.86;87.10;98720.72;4163283;28;20653;-90
2023/05/17 05:27:52;;;;;;;1401.03;164.07;;;;;;;10.00;87.53;98728.63;4155141;28;20629;-89
2023/05/17 05:29:55;;;;;;;1053.87;123.83;;;;;;;10.13;87.21;98737.47;4161387;28;24183;-87
2023/05/17 05:31:59;;;;;;;948.33;118.80;;;;;;;10.23;86.95;98733.38;4140927;28;21235;-87
2023/05/17 05:34:04;;;;;;;911.60;92.67;;;;;;;10.40;85.95;98743.69;4162743;28;20740;-87
2023/05/17 05:36:08;;;;;;;664.43;79.40;;;;;;;10.59;85.96;98739.13;4157822;28;20624;-88
2023/05/17 05:38:11;;;;;;;805.90;88.27;;;;;;;10.76;85.18;98744.19;4153607;28;20636;-87
2023/05/17 05:40:15;;;;;;;640.57;80.10;;;;;;;10.90;83.14;98745.06;4175246;28;20624;-88
2023/05/17 05:42:19;;;;;;;489.40;59.93;;;;;;;11.03;82.36;98746.81;4155225;28;21307;-88
2023/05/17 05:44:22;;;;;;;782.93;90.53;;;;;;;11.19;83.26;98755.44;4156081;28;20641;-88
2023/05/17 05:46:28;;;;;;;330.47;48.27;;;;;;;11.41;82.68;98763.63;4155416;28;20641;-87
2023/05/17 05:48:33;;;;;;;517.37;56.00;;;;;;;11.62;83.40;98757.13;4158474;28;20641;-88
2023/05/17 05:50:38;;;;;;;1948.37;186.60;;;;;;;11.74;79.92;98759.81;4155363;28;20627;-87
2023/05/17 05:52:45;;;;;;;1459.80;178.03;;;;;;;11.89;79.59;98764.94;4152298;28;21676;-87
2023/05/17 05:54:48;;;;;;;1152.83;116.27;;;;;;;12.10;81.47;98768.78;4170289;28;20721;-88
2023/05/17 05:56:51;;;;;;;1040.53;110.33;;;;;;;12.24;80.29;98774.00;4159500;28;20625;-88
2023/05/17 05:58:55;;;;;;;744.67;85.27;;;;;;;12.40;79.06;98778.16;4157221;28;20644;-88
2023/05/17 06:00:59;;;;;;;502.13;72.27;;;;;;;12.59;80.14;98777.78;4146627;28;20738;-88
2023/05/17 06:03:05;;;;;;;1349.13;142.40;;;;;;;12.75;79.17;98784.56;4172977;28;20663;-88
2023/05/17 06:05:09;;;;;;;663.97;87.40;;;;;;;12.87;78.69;98770.66;4173123;28;20644;-88
2023/05/17 06:07:13;;;;;;;640.87;81.60;;;;;;;12.87;74.98;98783.75;4161230;28;20624;-88
2023/05/17 06:09:16;;;;;;;796.47;91.00;;;;;;;12.85;74.31;98767.31;4166203;28;20640;-88
2023/05/17 06:11:20;;;;;;;776.87;99.00;;;;;;;13.02;75.69;98780.97;4177080;28;20632;-87
2023/05/17 06:13:23;;;;;;;996.70;123.13;;;;;;;13.19;74.11;98784.09;4158102;28;20684;-88
2023/05/17 06:15:27;;;;;;;933.37;106.10;;;;;;;13.44;73.10;98789.38;4175887;28;21207;-88
2023/05/17 06:17:30;;;;;;;458.67;59.83;;;;;;;13.54;71.25;98784.31;4167395;28;21234;-87
2023/05/17 06:19:33;;;;;;;435.10;52.00;;;;;;;13.72;71.22;98792.56;4149159;28;21201;-90
2023/05/17 06:21:37;;;;;;;223.03;34.33;;;;;;;13.66;69.38;98789.56;4171837;28;20636;-87
2023/05/17 06:23:42;;;;;;;1045.83;148.03;;;;;;;13.84;70.06;98791.72;4161743;28;20797;-87
2023/05/17 06:25:45;;;;;;;585.67;62.47;;;;;;;13.98;69.64;98791.63;4173389;28;20662;-87
2023/05/17 06:27:48;;;;;;;617.87;70.50;;;;;;;13.89;68.74;98796.66;4168410;28;20733;-88
2023/05/17 06:29:51;;;;;;;668.97;89.63;;;;;;;13.97;69.46;98791.72;4152183;28;21124;-87
2023/05/17 06:31:55;;;;;;;350.00;28.13;;;;;;;14.04;69.03;98795.56;4156906;28;20632;-87
2023/05/17 06:33:58;;;;;;;390.20;54.60;;;;;;;13.86;67.67;98795.09;4173677;28;20644;-87
2023/05/17 06:36:01;;;;;;;499.13;40.77;;;;;;;13.99;68.34;98798.50;4148860;28;20733;-87
2023/05/17 06:38:10;;;;;;;354.77;37.73;;;;;;;14.47;71.96;98805.56;4168421;28;20623;-87
2023/05/17 06:40:15;;;;;;;357.77;30.63;;;;;;;14.97;70.59;98820.09;4166778;28;20628;-86
2023/05/17 06:42:19;;;;;;;313.27;28.73;;;;;;;15.04;67.47;98808.19;4151636;28;20637;-86
2023/05/17 06:44:22;;;;;;;341.83;26.03;;;;;;;15.22;67.90;98815.56;4167766;28;21316;-86
2023/05/17 06:46:25;;;;;;;289.67;27.20;;;;;;;15.34;66.17;98811.19;4170689;28;20717;-87
2023/05/17 06:48:28;;;;;;;342.83;27.93;;;;;;;15.55;68.96;98816.47;4169581;28;20627;-86
2023/05/17 06:50:34;;;;;;;327.23;27.83;;;;;;;15.70;65.35;98804.75;4149325;28;20637;-86
2023/05/17 06:52:38;;;;;;;358.80;29.00;;;;;;;15.56;63.72;98814.69;4156673;28;20615;-88
2023/05/17 06:54:41;;;;;;;269.77;31.73;;;;;;;15.53;64.30;98811.44;4181777;28;20624;-87
2023/05/17 06:56:45;;;;;;;247.67;18.97;;;;;;;15.68;63.91;98811.09;4165681;28;20735;-84
2023/05/17 06:58:51;;;;;;;317.13;28.33;;;;;;;15.84;64.69;98807.16;4166775;28;20658;-84
2023/05/17 07:00:56;;;;;;;342.27;26.53;;;;;;;16.03;63.13;98816.13;4155218;28;20647;-84
2023/05/17 07:02:59;;;;;;;287.30;30.17;;;;;;;15.99;64.74;98813.03;4158706;28;20639;-84
2023/05/17 07:05:02;;;;;;;289.17;27.27;;;;;;;15.82;61.84;98803.81;4168952;28;20621;-84
2023/05/17 07:07:06;;;;;;;231.73;24.93;;;;;;;15.85;64.34;98814.09;4156737;28;20624;-84
2023/05/17 07:09:09;;;;;;;339.80;30.97;;;;;;;15.70;66.54;98810.03;4189371;28;20708;-84
2023/05/17 07:11:12;;;;;;;344.67;30.93;;;;;;;15.80;65.24;98815.41;4175274;28;20631;-84
2023/05/17 07:13:17;;;;;;;344.17;31.90;;;;;;;15.85;63.71;98815.91;4166876;28;20639;-84
2023/05/17 07:15:20;;;;;;;228.23;32.87;;;;;;;15.88;62.98;98819.13;4171842;28;20628;-85
2023/05/17 07:17:23;;;;;;;344.87;26.23;;;;;;;15.95;61.92;98814.22;4177084;28;20623;-85
2023/05/17 07:19:26;;;;;;;306.53;32.67;;;;;;;15.64;62.79;98799.97;4173127;28;20627;-85
2023/05/17 07:21:30;;;;;;;322.20;21.90;;;;;;;15.46;63.84;98799.72;4171633;28;20932;-84
2023/05/17 07:23:33;;;;;;;293.20;22.17;;;;;;;15.35;63.06;98800.56;4175552;28;20730;-85
2023/05/17 07:25:37;;;;;;;356.97;29.27;;;;;;;15.51;67.13;98806.28;4170316;28;21114;-84
2023/05/17 07:27:41;;;;;;;232.87;16.50;;;;;;;15.60;64.41;98809.03;4173799;28;20631;-85
2023/05/17 07:29:45;;;;;;;312.73;32.27;;;;;;;15.94;63.40;98808.13;4173132;28;20766;-84
2023/05/17 07:31:48;;;;;;;301.93;25.50;;;;;;;16.02;63.55;98811.81;4150511;28;20634;-84
2023/05/17 07:33:51;;;;;;;344.60;32.10;;;;;;;15.85;62.84;98806.22;4174728;28;21168;-84
2023/05/17 07:35:55;;;;;;;314.20;29.07;;;;;;;15.68;62.89;98809.31;4152969;28;20663;-84
2023/05/17 07:37:58;;;;;;;416.77;35.30;;;;;;;15.57;63.44;98804.06;4164658;28;21204;-84
2023/05/17 07:40:05;;;;;;;321.40;29.27;;;;;;;15.31;64.60;98801.72;4176872;28;20618;-84
2023/05/17 07:42:08;;;;;;;697.17;48.07;;;;;;;15.04;63.95;98802.09;4156092;28;20633;-84
2023/05/17 07:44:11;;;;;;;359.00;27.80;;;;;;;14.91;66.76;98802.16;4163806;28;21247;-85
2023/05/17 07:46:16;;;;;;;360.07;31.20;;;;;;;14.76;66.61;98802.47;4163800;28;21279;-84
2023/05/17 07:48:19;;;;;;;309.33;31.17;;;;;;;14.67;65.72;98804.00;4158176;28;20650;-84
2023/05/17 07:50:23;;;;;;;450.50;24.93;;;;;;;14.68;65.96;98807.44;4156465;28;20686;-84
2023/05/17 07:52:26;;;;;;;671.60;31.57;;;;;;;14.25;66.21;98798.38;4167847;28;20727;-85
2023/05/17 07:54:29;;;;;;;274.90;33.87;;;;;;;14.08;66.58;98786.59;4159824;28;20667;-84
2023/05/17 07:56:35;;;;;;;202.73;21.20;;;;;;;14.08;67.82;98794.44;4151308;28;20623;-84
2023/05/17 07:58:38;;;;;;;144.50;10.70;;;;;;;13.94;66.12;98795.38;4168602;28;20677;-84
2023/05/17 08:00:41;;;;;;;261.33;25.40;;;;;;;13.90;67.08;98788.66;4157635;28;20639;-84
2023/05/17 08:02:49;;;;;;;231.63;26.07;;;;;;;14.18;66.88;98791.88;4176054;28;20626;-84
2023/05/17 08:04:52;;;;;;;245.57;27.40;;;;;;;14.57;65.99;98786.41;4149989;28;20966;-84
2023/05/17 08:06:55;;;;;;;180.43;23.20;;;;;;;14.96;68.98;98793.94;4165194;28;20667;-87
2023/05/17 08:08:58;;;;;;;456.17;47.13;;;;;;;14.83;67.04;98801.91;4149213;28;21603;-84
2023/05/17 08:11:05;;;;;;;162.77;25.47;;;;;;;15.01;66.09;98792.66;4153322;28;21097;-84
2023/05/17 08:13:09;;;;;;;181.77;31.93;;;;;;;14.80;65.03;98802.13;4150337;28;20638;-84
2023/05/17 08:15:12;;;;;;;330.37;26.20;;;;;;;14.91;65.88;98802.16;4154268;28;20634;-85
2023/05/17 08:17:15;;;;;;;235.97;22.57;;;;;;;15.03;65.59;98801.25;4164824;28;20637;-84
2023/05/17 08:19:20;;;;;;;191.37;22.40;;;;;;;15.14;66.54;98801.31;4153128;28;20629;-84
2023/05/17 08:21:23;;;;;;;207.70;19.37;;;;;;;15.44;65.70;98809.50;4151440;28;20634;-84
2023/05/17 08:23:26;;;;;;;219.07;22.23;;;;;;;15.78;72.36;98807.63;4113874;28;20677;-84
2023/05/17 08:25:30;;;;;;;251.77;27.40;;;;;;;15.84;65.58;98804.53;4143534;28;20796;-84
2023/05/17 08:27:34;;;;;;;228.17;22.03;;;;;;;15.49;63.77;98804.75;4146940;28;20702;-84
2023/05/17 08:29:37;;;;;;;223.07;20.47;;;;;;;15.20;64.62;98803.50;4153170;28;20718;-84
2023/05/17 08:31:41;;;;;;;204.97;17.83;;;;;;;15.04;64.65;98800.31;4181085;28;21306;-84
2023/05/17 08:33:44;;;;;;;216.40;25.33;;;;;;;14.69;66.73;98807.34;4163998;28;20647;-84
2023/05/17 08:35:49;;;;;;;310.57;25.93;;;;;;;14.71;67.00;98809.84;4169471;28;21091;-84
2023/05/17 08:37:52;;;;;;;339.60;28.27;;;;;;;14.74;65.47;98807.00;4167951;28;20630;-84
2023/05/17 08:39:55;;;;;;;301.13;22.93;;;;;;;14.86;67.75;98806.94;4162632;28;21059;-83
2023/05/17 08:42:00;;;;;;;292.73;32.43;;;;;;;14.69;64.72;98794.19;4156707;28;21048;-84
2023/05/17 08:44:04;;;;;;;225.13;21.37;;;;;;;14.71;66.58;98799.34;4165692;28;20643;-84
2023/05/17 08:46:08;;;;;;;345.97;25.03;;;;;;;14.49;65.40;98795.78;4169312;28;20639;-84
2023/05/17 08:48:11;;;;;;;346.37;31.30;;;;;;;14.58;66.33;98797.72;4148966;28;20646;-84
2023/05/17 08:50:16;;;;;;;340.83;25.13;;;;;;;14.72;66.76;98801.84;4168860;28;20617;-84
2023/05/17 08:52:21;;;;;;;255.57;22.40;;;;;;;14.58;65.18;98803.81;4157153;28;21249;-83
2023/05/17 08:54:25;;;;;;;349.30;30.37;;;;;;;14.63;64.22;98797.28;4156441;28;20648;-84
2023/05/17 08:56:30;;;;;;;201.00;22.00;;;;;;;14.66;65.55;98799.69;4151814;28;20898;-84
2023/05/17 08:58:36;;;;;;;320.93;26.57;;;;;;;14.68;64.84;98802.19;4149597;28;21070;-84
2023/05/17 09:00:59;;;;;;;340.57;30.13;;;;;;;14.75;66.59;98803.44;4159878;28;20631;-84
2023/05/17 09:03:02;;;;;;;340.20;25.43;;;;;;;14.86;67.43;98808.72;4154232;28;20639;-84
2023/05/17 09:05:08;;;;;;;277.63;26.73;;;;;;;15.01;66.54;98800.53;4168416;28;20637;-84
2023/05/17 09:07:11;;;;;;;267.93;26.33;;;;;;;14.96;66.51;98794.78;4149651;28;20686;-83
2023/05/17 09:09:18;;;;;;;342.43;28.47;;;;;;;14.89;64.06;98803.25;4166199;28;20636;-84
2023/05/17 09:11:26;;;;;;;271.27;27.70;;;;;;;14.88;65.28;98805.00;4145581;28;21187;-84
2023/05/17 09:13:30;;;;;;;260.13;29.47;;;;;;;14.92;67.71;98798.59;4177902;28;20662;-83
2023/05/17 09:15:34;;;;;;;260.53;19.07;;;;;;;14.95;65.51;98802.78;4156048;28;20750;-84
2023/05/17 09:17:37;;;;;;;277.23;24.47;;;;;;;14.80;63.33;98810.00;4152000;28;20747;-84
2023/05/17 09:19:43;;;;;;;308.70;22.43;;;;;;;14.82;65.07;98802.00;4165593;28;20621;-84